sensor_id;sensor_type;location;lat;lon;timestamp;P1;durP1;ratioP1;P2;durP2;ratioP2
56788;SDS011;42657;51.650;17.780;2023-01-16T00:02:04;4.30;;;1.60;;
56788;SDS011;42657;51.650;17.780;2023-01-16T00:05:06;6.30;;;1.70;;
56788;SDS011;42657;51.650;17.780;2023-01-16T00:08:08;7.20;;;2.20;;
56788;SDS011;42657;51.650;17.780;2023-01-16T00:11:10;2.80;;;1.40;;
56788;SDS011;42657;51.650;17.780;2023-01-16T00:14:12;3.80;;;1.50;;
56788;SDS011;42657;51.650;17.780;2023-01-16T00:17:14;3.60;;;1.60;;
56788;SDS011;42657;51.650;17.780;2023-01-16T00:20:15;2.10;;;1.40;;
56788;SDS011;42657;51.650;17.780;2023-01-16T00:23:17;3.00;;;1.60;;
56788;SDS011;42657;51.650;17.780;2023-01-16T00:26:19;4.60;;;1.60;;
56788;SDS011;42657;51.650;17.780;2023-01-16T00:29:21;2.80;;;1.40;;
56788;SDS011;42657;51.650;17.780;2023-01-16T00:32:23;2.90;;;1.40;;
56788;SDS011;42657;51.650;17.780;2023-01-16T00:35:24;4.20;;;1.40;;
56788;SDS011;42657;51.650;17.780;2023-01-16T00:38:26;4.60;;;1.50;;
56788;SDS011;42657;51.650;17.780;2023-01-16T00:41:27;3.10;;;1.40;;
56788;SDS011;42657;51.650;17.780;2023-01-16T00:44:29;4.90;;;1.30;;
56788;SDS011;42657;51.650;17.780;2023-01-16T00:47:30;3.20;;;1.40;;
56788;SDS011;42657;51.650;17.780;2023-01-16T00:50:32;2.00;;;1.20;;
56788;SDS011;42657;51.650;17.780;2023-01-16T00:53:34;3.10;;;1.50;;
56788;SDS011;42657;51.650;17.780;2023-01-16T00:56:35;3.40;;;1.30;;
56788;SDS011;42657;51.650;17.780;2023-01-16T00:59:37;2.90;;;1.20;;
56788;SDS011;42657;51.650;17.780;2023-01-16T01:02:38;3.90;;;1.20;;
56788;SDS011;42657;51.650;17.780;2023-01-16T01:05:40;4.80;;;1.50;;
56788;SDS011;42657;51.650;17.780;2023-01-16T01:08:42;3.50;;;1.40;;
56788;SDS011;42657;51.650;17.780;2023-01-16T01:11:43;2.10;;;1.10;;
56788;SDS011;42657;51.650;17.780;2023-01-16T01:14:45;3.00;;;1.50;;
56788;SDS011;42657;51.650;17.780;2023-01-16T01:17:46;2.20;;;1.20;;
56788;SDS011;42657;51.650;17.780;2023-01-16T01:20:48;3.00;;;1.30;;
56788;SDS011;42657;51.650;17.780;2023-01-16T01:23:49;2.50;;;1.60;;
56788;SDS011;42657;51.650;17.780;2023-01-16T01:26:51;3.10;;;1.20;;
56788;SDS011;42657;51.650;17.780;2023-01-16T01:29:53;3.80;;;1.30;;
56788;SDS011;42657;51.650;17.780;2023-01-16T01:32:55;2.60;;;1.20;;
56788;SDS011;42657;51.650;17.780;2023-01-16T01:35:56;2.50;;;1.00;;
56788;SDS011;42657;51.650;17.780;2023-01-16T01:38:58;1.70;;;1.00;;
56788;SDS011;42657;51.650;17.780;2023-01-16T01:41:59;3.40;;;1.40;;
56788;SDS011;42657;51.650;17.780;2023-01-16T01:48:26;2.10;;;0.90;;
56788;SDS011;42657;51.650;17.780;2023-01-16T01:51:32;1.90;;;1.00;;
56788;SDS011;42657;51.650;17.780;2023-01-16T01:54:39;2.30;;;0.90;;
56788;SDS011;42657;51.650;17.780;2023-01-16T01:57:45;2.80;;;1.30;;
56788;SDS011;42657;51.650;17.780;2023-01-16T02:00:53;2.40;;;1.10;;
56788;SDS011;42657;51.650;17.780;2023-01-16T02:03:58;3.30;;;1.10;;
56788;SDS011;42657;51.650;17.780;2023-01-16T02:07:03;2.70;;;1.10;;
56788;SDS011;42657;51.650;17.780;2023-01-16T02:13:26;1.80;;;1.30;;
56788;SDS011;42657;51.650;17.780;2023-01-16T02:16:28;2.10;;;1.10;;
56788;SDS011;42657;51.650;17.780;2023-01-16T02:19:48;1.70;;;0.90;;
56788;SDS011;42657;51.650;17.780;2023-01-16T02:23:34;1.80;;;0.90;;
56788;SDS011;42657;51.650;17.780;2023-01-16T02:33:24;2.30;;;0.90;;
56788;SDS011;42657;51.650;17.780;2023-01-16T02:39:56;3.90;;;1.00;;
56788;SDS011;42657;51.650;17.780;2023-01-16T02:43:12;1.60;;;0.80;;
56788;SDS011;42657;51.650;17.780;2023-01-16T02:53:14;1.60;;;0.60;;
56788;SDS011;42657;51.650;17.780;2023-01-16T02:56:19;1.30;;;0.70;;
56788;SDS011;42657;51.650;17.780;2023-01-16T02:59:25;1.60;;;0.80;;
56788;SDS011;42657;51.650;17.780;2023-01-16T03:02:30;1.20;;;0.70;;
56788;SDS011;42657;51.650;17.780;2023-01-16T03:05:35;2.60;;;0.80;;
56788;SDS011;42657;51.650;17.780;2023-01-16T03:21:41;2.30;;;0.80;;
56788;SDS011;42657;51.650;17.780;2023-01-16T03:31:05;1.80;;;0.80;;
56788;SDS011;42657;51.650;17.780;2023-01-16T03:34:14;1.40;;;0.60;;
56788;SDS011;42657;51.650;17.780;2023-01-16T03:37:19;0.90;;;0.60;;
56788;SDS011;42657;51.650;17.780;2023-01-16T03:40:26;1.90;;;0.50;;
56788;SDS011;42657;51.650;17.780;2023-01-16T03:43:32;1.40;;;0.70;;
56788;SDS011;42657;51.650;17.780;2023-01-16T03:46:48;1.10;;;0.60;;
56788;SDS011;42657;51.650;17.780;2023-01-16T03:49:52;1.40;;;0.30;;
56788;SDS011;42657;51.650;17.780;2023-01-16T03:52:59;1.80;;;0.70;;
56788;SDS011;42657;51.650;17.780;2023-01-16T03:56:19;1.60;;;0.60;;
56788;SDS011;42657;51.650;17.780;2023-01-16T03:59:26;1.00;;;0.60;;
56788;SDS011;42657;51.650;17.780;2023-01-16T04:02:30;2.20;;;0.70;;
56788;SDS011;42657;51.650;17.780;2023-01-16T04:05:59;0.80;;;0.60;;
56788;SDS011;42657;51.650;17.780;2023-01-16T04:09:08;1.30;;;0.50;;
56788;SDS011;42657;51.650;17.780;2023-01-16T04:12:18;1.30;;;0.60;;
56788;SDS011;42657;51.650;17.780;2023-01-16T04:15:26;1.00;;;0.50;;
56788;SDS011;42657;51.650;17.780;2023-01-16T04:18:32;1.30;;;0.50;;
56788;SDS011;42657;51.650;17.780;2023-01-16T04:21:36;1.10;;;0.40;;
56788;SDS011;42657;51.650;17.780;2023-01-16T04:24:37;1.10;;;0.60;;
56788;SDS011;42657;51.650;17.780;2023-01-16T04:27:39;1.30;;;0.60;;
56788;SDS011;42657;51.650;17.780;2023-01-16T04:30:40;1.00;;;0.50;;
56788;SDS011;42657;51.650;17.780;2023-01-16T04:33:42;2.50;;;0.80;;
56788;SDS011;42657;51.650;17.780;2023-01-16T04:36:43;2.50;;;1.00;;
56788;SDS011;42657;51.650;17.780;2023-01-16T04:39:45;2.00;;;0.90;;
56788;SDS011;42657;51.650;17.780;2023-01-16T04:42:47;2.30;;;1.30;;
56788;SDS011;42657;51.650;17.780;2023-01-16T04:45:49;4.40;;;2.10;;
56788;SDS011;42657;51.650;17.780;2023-01-16T04:48:50;4.90;;;2.00;;
56788;SDS011;42657;51.650;17.780;2023-01-16T04:51:52;6.30;;;2.60;;
56788;SDS011;42657;51.650;17.780;2023-01-16T04:54:53;7.50;;;3.10;;
56788;SDS011;42657;51.650;17.780;2023-01-16T04:57:55;7.00;;;3.30;;
56788;SDS011;42657;51.650;17.780;2023-01-16T05:00:56;7.10;;;3.90;;
56788;SDS011;42657;51.650;17.780;2023-01-16T05:03:58;8.40;;;4.10;;
56788;SDS011;42657;51.650;17.780;2023-01-16T05:06:59;8.40;;;4.30;;
56788;SDS011;42657;51.650;17.780;2023-01-16T05:10:01;11.90;;;5.20;;
56788;SDS011;42657;51.650;17.780;2023-01-16T05:13:03;8.70;;;4.10;;
56788;SDS011;42657;51.650;17.780;2023-01-16T05:16:04;8.20;;;4.50;;
56788;SDS011;42657;51.650;17.780;2023-01-16T05:19:06;9.20;;;4.60;;
56788;SDS011;42657;51.650;17.780;2023-01-16T05:22:08;9.80;;;5.10;;
56788;SDS011;42657;51.650;17.780;2023-01-16T05:25:09;9.60;;;4.50;;
56788;SDS011;42657;51.650;17.780;2023-01-16T05:28:11;10.70;;;4.50;;
56788;SDS011;42657;51.650;17.780;2023-01-16T05:31:12;10.10;;;5.30;;
56788;SDS011;42657;51.650;17.780;2023-01-16T05:34:14;10.30;;;5.10;;
56788;SDS011;42657;51.650;17.780;2023-01-16T05:37:15;9.90;;;4.90;;
56788;SDS011;42657;51.650;17.780;2023-01-16T05:40:17;9.70;;;5.10;;
56788;SDS011;42657;51.650;17.780;2023-01-16T05:43:18;9.60;;;4.70;;
56788;SDS011;42657;51.650;17.780;2023-01-16T05:46:20;11.00;;;4.40;;
56788;SDS011;42657;51.650;17.780;2023-01-16T05:49:22;9.80;;;4.50;;
56788;SDS011;42657;51.650;17.780;2023-01-16T05:52:26;8.70;;;4.60;;
56788;SDS011;42657;51.650;17.780;2023-01-16T05:55:28;10.20;;;4.40;;
56788;SDS011;42657;51.650;17.780;2023-01-16T05:58:30;9.80;;;4.60;;
56788;SDS011;42657;51.650;17.780;2023-01-16T06:01:31;8.60;;;4.50;;
56788;SDS011;42657;51.650;17.780;2023-01-16T06:04:33;8.90;;;4.50;;
56788;SDS011;42657;51.650;17.780;2023-01-16T06:07:34;9.70;;;4.50;;
56788;SDS011;42657;51.650;17.780;2023-01-16T06:10:36;9.80;;;4.80;;
56788;SDS011;42657;51.650;17.780;2023-01-16T06:13:37;7.80;;;4.10;;
56788;SDS011;42657;51.650;17.780;2023-01-16T06:16:39;8.80;;;4.20;;
56788;SDS011;42657;51.650;17.780;2023-01-16T06:19:41;8.50;;;4.20;;
56788;SDS011;42657;51.650;17.780;2023-01-16T06:22:43;10.70;;;4.20;;
56788;SDS011;42657;51.650;17.780;2023-01-16T06:25:47;7.10;;;3.90;;
56788;SDS011;42657;51.650;17.780;2023-01-16T06:28:49;8.30;;;4.00;;
56788;SDS011;42657;51.650;17.780;2023-01-16T06:31:51;7.90;;;4.70;;
56788;SDS011;42657;51.650;17.780;2023-01-16T06:34:52;8.40;;;4.10;;
56788;SDS011;42657;51.650;17.780;2023-01-16T06:37:54;6.40;;;3.80;;
56788;SDS011;42657;51.650;17.780;2023-01-16T06:40:55;10.80;;;3.80;;
56788;SDS011;42657;51.650;17.780;2023-01-16T06:43:57;9.20;;;4.60;;
56788;SDS011;42657;51.650;17.780;2023-01-16T06:46:59;10.70;;;4.50;;
56788;SDS011;42657;51.650;17.780;2023-01-16T06:50:01;8.50;;;4.30;;
56788;SDS011;42657;51.650;17.780;2023-01-16T06:53:03;9.10;;;4.30;;
56788;SDS011;42657;51.650;17.780;2023-01-16T06:56:04;7.70;;;4.20;;
56788;SDS011;42657;51.650;17.780;2023-01-16T06:59:06;10.10;;;4.20;;
56788;SDS011;42657;51.650;17.780;2023-01-16T07:02:08;10.40;;;4.50;;
56788;SDS011;42657;51.650;17.780;2023-01-16T07:05:10;9.00;;;4.90;;
56788;SDS011;42657;51.650;17.780;2023-01-16T07:08:11;10.00;;;3.80;;
56788;SDS011;42657;51.650;17.780;2023-01-16T07:11:14;8.70;;;4.50;;
56788;SDS011;42657;51.650;17.780;2023-01-16T07:14:15;10.50;;;4.40;;
56788;SDS011;42657;51.650;17.780;2023-01-16T07:17:17;8.00;;;3.70;;
56788;SDS011;42657;51.650;17.780;2023-01-16T07:20:18;9.30;;;5.20;;
56788;SDS011;42657;51.650;17.780;2023-01-16T07:23:25;9.70;;;4.50;;
56788;SDS011;42657;51.650;17.780;2023-01-16T07:26:29;12.00;;;4.60;;
56788;SDS011;42657;51.650;17.780;2023-01-16T07:29:32;9.40;;;4.00;;
56788;SDS011;42657;51.650;17.780;2023-01-16T07:32:35;12.10;;;4.50;;
56788;SDS011;42657;51.650;17.780;2023-01-16T07:35:37;9.80;;;4.50;;
56788;SDS011;42657;51.650;17.780;2023-01-16T07:38:38;12.10;;;4.40;;
56788;SDS011;42657;51.650;17.780;2023-01-16T07:41:40;9.80;;;4.30;;
56788;SDS011;42657;51.650;17.780;2023-01-16T07:44:41;10.40;;;4.20;;
56788;SDS011;42657;51.650;17.780;2023-01-16T07:47:43;8.90;;;4.20;;
56788;SDS011;42657;51.650;17.780;2023-01-16T07:50:48;9.00;;;3.70;;
56788;SDS011;42657;51.650;17.780;2023-01-16T07:53:51;9.80;;;4.20;;
56788;SDS011;42657;51.650;17.780;2023-01-16T07:56:52;13.50;;;4.00;;
56788;SDS011;42657;51.650;17.780;2023-01-16T07:59:54;10.00;;;3.60;;
56788;SDS011;42657;51.650;17.780;2023-01-16T08:02:55;9.80;;;4.30;;
56788;SDS011;42657;51.650;17.780;2023-01-16T08:05:57;9.20;;;3.80;;
56788;SDS011;42657;51.650;17.780;2023-01-16T08:08:59;7.50;;;3.30;;
56788;SDS011;42657;51.650;17.780;2023-01-16T08:12:02;12.40;;;3.90;;
56788;SDS011;42657;51.650;17.780;2023-01-16T08:15:04;11.60;;;3.60;;
56788;SDS011;42657;51.650;17.780;2023-01-16T08:18:06;9.00;;;3.60;;
56788;SDS011;42657;51.650;17.780;2023-01-16T08:21:07;9.90;;;3.80;;
56788;SDS011;42657;51.650;17.780;2023-01-16T08:24:09;9.80;;;3.80;;
56788;SDS011;42657;51.650;17.780;2023-01-16T08:27:11;14.20;;;4.20;;
56788;SDS011;42657;51.650;17.780;2023-01-16T08:30:13;8.40;;;3.50;;
56788;SDS011;42657;51.650;17.780;2023-01-16T08:33:15;7.80;;;3.70;;
56788;SDS011;42657;51.650;17.780;2023-01-16T08:36:16;13.80;;;4.00;;
56788;SDS011;42657;51.650;17.780;2023-01-16T08:39:18;7.10;;;3.40;;
56788;SDS011;42657;51.650;17.780;2023-01-16T08:42:20;7.20;;;3.90;;
56788;SDS011;42657;51.650;17.780;2023-01-16T08:45:21;9.00;;;4.00;;
56788;SDS011;42657;51.650;17.780;2023-01-16T08:48:23;7.50;;;3.60;;
56788;SDS011;42657;51.650;17.780;2023-01-16T08:51:27;8.00;;;3.60;;
56788;SDS011;42657;51.650;17.780;2023-01-16T08:54:28;9.10;;;3.70;;
56788;SDS011;42657;51.650;17.780;2023-01-16T08:57:30;10.20;;;3.00;;
56788;SDS011;42657;51.650;17.780;2023-01-16T09:00:31;7.20;;;3.30;;
56788;SDS011;42657;51.650;17.780;2023-01-16T09:03:35;10.30;;;3.60;;
56788;SDS011;42657;51.650;17.780;2023-01-16T09:06:36;9.20;;;3.90;;
56788;SDS011;42657;51.650;17.780;2023-01-16T09:09:38;6.50;;;3.50;;
56788;SDS011;42657;51.650;17.780;2023-01-16T09:12:39;6.40;;;3.10;;
56788;SDS011;42657;51.650;17.780;2023-01-16T09:15:41;6.90;;;3.30;;
56788;SDS011;42657;51.650;17.780;2023-01-16T09:18:42;8.80;;;3.80;;
56788;SDS011;42657;51.650;17.780;2023-01-16T09:21:44;7.90;;;3.40;;
56788;SDS011;42657;51.650;17.780;2023-01-16T09:24:46;8.10;;;3.40;;
56788;SDS011;42657;51.650;17.780;2023-01-16T09:27:48;5.60;;;3.30;;
56788;SDS011;42657;51.650;17.780;2023-01-16T09:30:52;9.20;;;3.20;;
56788;SDS011;42657;51.650;17.780;2023-01-16T09:33:54;6.00;;;2.90;;
56788;SDS011;42657;51.650;17.780;2023-01-16T09:36:55;7.60;;;3.00;;
56788;SDS011;42657;51.650;17.780;2023-01-16T09:39:57;7.80;;;3.10;;
56788;SDS011;42657;51.650;17.780;2023-01-16T09:46:38;5.80;;;3.00;;
56788;SDS011;42657;51.650;17.780;2023-01-16T09:49:57;6.70;;;3.20;;
56788;SDS011;42657;51.650;17.780;2023-01-16T09:53:03;9.70;;;3.40;;
56788;SDS011;42657;51.650;17.780;2023-01-16T09:56:10;6.10;;;3.30;;
56788;SDS011;42657;51.650;17.780;2023-01-16T10:02:23;5.80;;;2.70;;
56788;SDS011;42657;51.650;17.780;2023-01-16T10:05:50;8.10;;;3.20;;
56788;SDS011;42657;51.650;17.780;2023-01-16T10:09:08;6.90;;;2.90;;
56788;SDS011;42657;51.650;17.780;2023-01-16T10:12:19;7.30;;;2.90;;
56788;SDS011;42657;51.650;17.780;2023-01-16T10:16:09;7.50;;;3.30;;
56788;SDS011;42657;51.650;17.780;2023-01-16T10:22:29;5.40;;;3.00;;
56788;SDS011;42657;51.650;17.780;2023-01-16T10:32:11;4.10;;;2.50;;
56788;SDS011;42657;51.650;17.780;2023-01-16T10:35:25;4.20;;;2.60;;
56788;SDS011;42657;51.650;17.780;2023-01-16T10:42:00;5.70;;;2.80;;
56788;SDS011;42657;51.650;17.780;2023-01-16T10:45:13;4.60;;;2.30;;
56788;SDS011;42657;51.650;17.780;2023-01-16T10:48:19;4.40;;;2.30;;
56788;SDS011;42657;51.650;17.780;2023-01-16T10:51:21;5.30;;;2.80;;
56788;SDS011;42657;51.650;17.780;2023-01-16T10:54:23;3.40;;;2.30;;
56788;SDS011;42657;51.650;17.780;2023-01-16T10:57:26;5.70;;;2.70;;
56788;SDS011;42657;51.650;17.780;2023-01-16T11:00:29;4.40;;;2.40;;
56788;SDS011;42657;51.650;17.780;2023-01-16T11:06:36;3.50;;;2.30;;
56788;SDS011;42657;51.650;17.780;2023-01-16T11:09:38;5.80;;;2.60;;
56788;SDS011;42657;51.650;17.780;2023-01-16T11:12:40;5.30;;;2.30;;
56788;SDS011;42657;51.650;17.780;2023-01-16T11:15:58;3.80;;;2.30;;
56788;SDS011;42657;51.650;17.780;2023-01-16T11:19:20;4.10;;;2.50;;
56788;SDS011;42657;51.650;17.780;2023-01-16T11:22:24;5.00;;;3.10;;
56788;SDS011;42657;51.650;17.780;2023-01-16T11:25:28;4.80;;;2.60;;
56788;SDS011;42657;51.650;17.780;2023-01-16T11:28:31;5.90;;;2.50;;
56788;SDS011;42657;51.650;17.780;2023-01-16T11:31:33;4.00;;;2.10;;
56788;SDS011;42657;51.650;17.780;2023-01-16T11:34:36;5.60;;;2.40;;
56788;SDS011;42657;51.650;17.780;2023-01-16T11:37:41;4.20;;;2.20;;
56788;SDS011;42657;51.650;17.780;2023-01-16T11:40:45;3.80;;;2.30;;
56788;SDS011;42657;51.650;17.780;2023-01-16T11:47:21;4.10;;;2.00;;
56788;SDS011;42657;51.650;17.780;2023-01-16T11:50:36;4.50;;;2.10;;
56788;SDS011;42657;51.650;17.780;2023-01-16T11:53:37;4.20;;;2.10;;
56788;SDS011;42657;51.650;17.780;2023-01-16T12:03:12;4.10;;;2.20;;
56788;SDS011;42657;51.650;17.780;2023-01-16T12:06:38;4.10;;;2.30;;
56788;SDS011;42657;51.650;17.780;2023-01-16T12:13:05;4.10;;;2.40;;
56788;SDS011;42657;51.650;17.780;2023-01-16T12:22:49;3.90;;;2.20;;
56788;SDS011;42657;51.650;17.780;2023-01-16T12:29:12;3.20;;;2.00;;
56788;SDS011;42657;51.650;17.780;2023-01-16T12:36:25;4.20;;;2.20;;
56788;SDS011;42657;51.650;17.780;2023-01-16T12:39:48;3.50;;;1.90;;
56788;SDS011;42657;51.650;17.780;2023-01-16T12:43:21;3.90;;;2.00;;
56788;SDS011;42657;51.650;17.780;2023-01-16T13:00:15;4.40;;;2.20;;
56788;SDS011;42657;51.650;17.780;2023-01-16T13:03:41;3.20;;;2.00;;
56788;SDS011;42657;51.650;17.780;2023-01-16T13:07:00;4.60;;;2.40;;
56788;SDS011;42657;51.650;17.780;2023-01-16T13:10:05;3.80;;;2.20;;
56788;SDS011;42657;51.650;17.780;2023-01-16T13:13:19;5.90;;;2.60;;
56788;SDS011;42657;51.650;17.780;2023-01-16T13:16:26;4.30;;;2.30;;
56788;SDS011;42657;51.650;17.780;2023-01-16T13:19:34;4.40;;;2.20;;
56788;SDS011;42657;51.650;17.780;2023-01-16T13:22:46;4.10;;;2.10;;
56788;SDS011;42657;51.650;17.780;2023-01-16T13:26:02;4.90;;;2.40;;
56788;SDS011;42657;51.650;17.780;2023-01-16T13:29:09;3.50;;;2.30;;
56788;SDS011;42657;51.650;17.780;2023-01-16T13:32:22;3.50;;;1.80;;
56788;SDS011;42657;51.650;17.780;2023-01-16T13:35:29;4.50;;;2.30;;
56788;SDS011;42657;51.650;17.780;2023-01-16T13:41:44;4.50;;;2.30;;
56788;SDS011;42657;51.650;17.780;2023-01-16T13:44:50;4.00;;;2.10;;
56788;SDS011;42657;51.650;17.780;2023-01-16T13:50:59;4.00;;;2.40;;
56788;SDS011;42657;51.650;17.780;2023-01-16T13:54:03;3.90;;;2.20;;
56788;SDS011;42657;51.650;17.780;2023-01-16T13:57:09;4.90;;;2.40;;
56788;SDS011;42657;51.650;17.780;2023-01-16T14:00:17;4.80;;;2.30;;
56788;SDS011;42657;51.650;17.780;2023-01-16T14:03:22;4.90;;;2.30;;
56788;SDS011;42657;51.650;17.780;2023-01-16T14:06:25;4.80;;;2.40;;
56788;SDS011;42657;51.650;17.780;2023-01-16T14:09:27;4.40;;;2.20;;
56788;SDS011;42657;51.650;17.780;2023-01-16T14:12:32;5.60;;;2.70;;
56788;SDS011;42657;51.650;17.780;2023-01-16T14:15:53;4.80;;;2.60;;
56788;SDS011;42657;51.650;17.780;2023-01-16T14:22:00;5.10;;;2.90;;
56788;SDS011;42657;51.650;17.780;2023-01-16T14:25:04;7.70;;;2.70;;
56788;SDS011;42657;51.650;17.780;2023-01-16T14:28:14;5.50;;;2.90;;
56788;SDS011;42657;51.650;17.780;2023-01-16T14:31:18;6.70;;;3.30;;
56788;SDS011;42657;51.650;17.780;2023-01-16T14:34:25;7.00;;;3.00;;
56788;SDS011;42657;51.650;17.780;2023-01-16T14:37:30;6.80;;;3.20;;
56788;SDS011;42657;51.650;17.780;2023-01-16T14:40:36;6.80;;;3.20;;
56788;SDS011;42657;51.650;17.780;2023-01-16T14:43:42;8.40;;;4.10;;
56788;SDS011;42657;51.650;17.780;2023-01-16T14:50:17;8.50;;;3.60;;
56788;SDS011;42657;51.650;17.780;2023-01-16T14:53:19;8.40;;;4.30;;
56788;SDS011;42657;51.650;17.780;2023-01-16T14:59:39;6.90;;;3.30;;
56788;SDS011;42657;51.650;17.780;2023-01-16T15:03:00;5.50;;;3.10;;
56788;SDS011;42657;51.650;17.780;2023-01-16T15:06:05;6.40;;;3.30;;
56788;SDS011;42657;51.650;17.780;2023-01-16T15:09:12;7.60;;;3.30;;
56788;SDS011;42657;51.650;17.780;2023-01-16T15:12:17;7.30;;;3.30;;
56788;SDS011;42657;51.650;17.780;2023-01-16T15:15:23;7.00;;;3.20;;
56788;SDS011;42657;51.650;17.780;2023-01-16T15:18:27;6.60;;;3.50;;
56788;SDS011;42657;51.650;17.780;2023-01-16T15:21:29;6.00;;;3.30;;
56788;SDS011;42657;51.650;17.780;2023-01-16T15:24:30;6.70;;;3.90;;
56788;SDS011;42657;51.650;17.780;2023-01-16T15:27:33;6.80;;;3.50;;
56788;SDS011;42657;51.650;17.780;2023-01-16T15:30:37;6.50;;;3.50;;
56788;SDS011;42657;51.650;17.780;2023-01-16T15:33:39;9.00;;;3.80;;
56788;SDS011;42657;51.650;17.780;2023-01-16T15:36:42;9.40;;;4.10;;
56788;SDS011;42657;51.650;17.780;2023-01-16T15:39:48;8.70;;;4.10;;
56788;SDS011;42657;51.650;17.780;2023-01-16T15:42:50;8.10;;;4.20;;
56788;SDS011;42657;51.650;17.780;2023-01-16T15:49:24;9.40;;;4.70;;
56788;SDS011;42657;51.650;17.780;2023-01-16T15:52:36;10.50;;;4.30;;
56788;SDS011;42657;51.650;17.780;2023-01-16T15:55:39;9.50;;;4.50;;
56788;SDS011;42657;51.650;17.780;2023-01-16T15:58:44;10.40;;;5.00;;
56788;SDS011;42657;51.650;17.780;2023-01-16T16:01:46;11.60;;;5.90;;
56788;SDS011;42657;51.650;17.780;2023-01-16T16:04:48;12.90;;;6.40;;
56788;SDS011;42657;51.650;17.780;2023-01-16T16:07:52;20.10;;;6.80;;
56788;SDS011;42657;51.650;17.780;2023-01-16T16:10:55;18.90;;;7.20;;
56788;SDS011;42657;51.650;17.780;2023-01-16T16:13:59;20.90;;;8.50;;
56788;SDS011;42657;51.650;17.780;2023-01-16T16:17:02;24.10;;;9.10;;
56788;SDS011;42657;51.650;17.780;2023-01-16T16:23:31;21.50;;;8.60;;
56788;SDS011;42657;51.650;17.780;2023-01-16T16:26:36;20.70;;;8.80;;
56788;SDS011;42657;51.650;17.780;2023-01-16T16:29:41;25.00;;;8.90;;
56788;SDS011;42657;51.650;17.780;2023-01-16T16:32:50;24.70;;;9.20;;
56788;SDS011;42657;51.650;17.780;2023-01-16T16:35:57;23.30;;;8.80;;
56788;SDS011;42657;51.650;17.780;2023-01-16T16:38:59;20.90;;;8.90;;
56788;SDS011;42657;51.650;17.780;2023-01-16T16:42:01;19.30;;;8.60;;
56788;SDS011;42657;51.650;17.780;2023-01-16T16:45:29;17.70;;;8.10;;
56788;SDS011;42657;51.650;17.780;2023-01-16T16:48:32;21.90;;;9.70;;
56788;SDS011;42657;51.650;17.780;2023-01-16T16:51:33;21.80;;;9.70;;
56788;SDS011;42657;51.650;17.780;2023-01-16T16:54:35;19.10;;;8.70;;
56788;SDS011;42657;51.650;17.780;2023-01-16T16:57:41;19.70;;;9.00;;
56788;SDS011;42657;51.650;17.780;2023-01-16T17:00:44;19.10;;;8.30;;
56788;SDS011;42657;51.650;17.780;2023-01-16T17:03:47;19.40;;;8.70;;
56788;SDS011;42657;51.650;17.780;2023-01-16T17:06:52;17.20;;;8.20;;
56788;SDS011;42657;51.650;17.780;2023-01-16T17:09:54;16.80;;;8.70;;
56788;SDS011;42657;51.650;17.780;2023-01-16T17:12:55;18.70;;;9.80;;
56788;SDS011;42657;51.650;17.780;2023-01-16T17:15:57;18.20;;;8.60;;
56788;SDS011;42657;51.650;17.780;2023-01-16T17:19:06;20.10;;;9.40;;
56788;SDS011;42657;51.650;17.780;2023-01-16T17:22:18;17.90;;;8.70;;
56788;SDS011;42657;51.650;17.780;2023-01-16T17:25:19;17.20;;;8.20;;
56788;SDS011;42657;51.650;17.780;2023-01-16T17:28:21;15.60;;;8.00;;
56788;SDS011;42657;51.650;17.780;2023-01-16T17:31:23;16.50;;;8.10;;
56788;SDS011;42657;51.650;17.780;2023-01-16T17:34:24;15.00;;;8.00;;
56788;SDS011;42657;51.650;17.780;2023-01-16T17:37:26;18.30;;;8.30;;
56788;SDS011;42657;51.650;17.780;2023-01-16T17:40:27;18.10;;;8.10;;
56788;SDS011;42657;51.650;17.780;2023-01-16T17:43:29;16.60;;;7.80;;
56788;SDS011;42657;51.650;17.780;2023-01-16T17:46:30;15.30;;;7.40;;
56788;SDS011;42657;51.650;17.780;2023-01-16T17:49:32;14.20;;;7.30;;
56788;SDS011;42657;51.650;17.780;2023-01-16T17:52:40;15.50;;;7.40;;
56788;SDS011;42657;51.650;17.780;2023-01-16T17:55:44;17.40;;;8.20;;
56788;SDS011;42657;51.650;17.780;2023-01-16T17:58:47;14.90;;;8.00;;
56788;SDS011;42657;51.650;17.780;2023-01-16T18:01:50;14.90;;;7.60;;
56788;SDS011;42657;51.650;17.780;2023-01-16T18:04:52;16.00;;;8.00;;
56788;SDS011;42657;51.650;17.780;2023-01-16T18:07:54;15.20;;;8.00;;
56788;SDS011;42657;51.650;17.780;2023-01-16T18:10:55;15.20;;;7.20;;
56788;SDS011;42657;51.650;17.780;2023-01-16T18:14:02;16.80;;;8.10;;
56788;SDS011;42657;51.650;17.780;2023-01-16T18:17:04;16.50;;;7.20;;
56788;SDS011;42657;51.650;17.780;2023-01-16T18:20:06;14.50;;;7.50;;
56788;SDS011;42657;51.650;17.780;2023-01-16T18:23:08;16.60;;;8.40;;
56788;SDS011;42657;51.650;17.780;2023-01-16T18:26:10;13.60;;;8.20;;
56788;SDS011;42657;51.650;17.780;2023-01-16T18:29:11;14.90;;;7.90;;
56788;SDS011;42657;51.650;17.780;2023-01-16T18:32:14;14.30;;;8.40;;
56788;SDS011;42657;51.650;17.780;2023-01-16T18:35:16;17.20;;;8.20;;
56788;SDS011;42657;51.650;17.780;2023-01-16T18:38:17;14.80;;;8.60;;
56788;SDS011;42657;51.650;17.780;2023-01-16T18:41:19;15.60;;;8.50;;
56788;SDS011;42657;51.650;17.780;2023-01-16T18:44:20;14.30;;;8.60;;
56788;SDS011;42657;51.650;17.780;2023-01-16T18:47:22;14.40;;;8.20;;
56788;SDS011;42657;51.650;17.780;2023-01-16T18:50:23;15.90;;;8.30;;
56788;SDS011;42657;51.650;17.780;2023-01-16T18:53:45;16.70;;;8.90;;
56788;SDS011;42657;51.650;17.780;2023-01-16T18:56:53;15.00;;;7.90;;
56788;SDS011;42657;51.650;17.780;2023-01-16T18:59:56;14.20;;;8.00;;
56788;SDS011;42657;51.650;17.780;2023-01-16T19:02:58;13.60;;;8.00;;
56788;SDS011;42657;51.650;17.780;2023-01-16T19:06:00;14.50;;;7.80;;
56788;SDS011;42657;51.650;17.780;2023-01-16T19:09:01;14.40;;;8.10;;
56788;SDS011;42657;51.650;17.780;2023-01-16T19:12:03;14.20;;;7.90;;
56788;SDS011;42657;51.650;17.780;2023-01-16T19:15:08;14.30;;;7.90;;
56788;SDS011;42657;51.650;17.780;2023-01-16T19:18:10;14.00;;;7.50;;
56788;SDS011;42657;51.650;17.780;2023-01-16T19:21:11;15.20;;;8.00;;
56788;SDS011;42657;51.650;17.780;2023-01-16T19:24:14;12.80;;;7.60;;
56788;SDS011;42657;51.650;17.780;2023-01-16T19:27:16;13.60;;;7.30;;
56788;SDS011;42657;51.650;17.780;2023-01-16T19:30:17;11.80;;;7.70;;
56788;SDS011;42657;51.650;17.780;2023-01-16T19:33:19;12.70;;;7.20;;
56788;SDS011;42657;51.650;17.780;2023-01-16T19:36:21;13.50;;;7.60;;
56788;SDS011;42657;51.650;17.780;2023-01-16T19:39:22;12.90;;;7.30;;
56788;SDS011;42657;51.650;17.780;2023-01-16T19:42:24;13.20;;;6.90;;
56788;SDS011;42657;51.650;17.780;2023-01-16T19:45:26;11.30;;;6.90;;
56788;SDS011;42657;51.650;17.780;2023-01-16T19:48:28;10.20;;;6.50;;
56788;SDS011;42657;51.650;17.780;2023-01-16T19:51:29;12.30;;;6.70;;
56788;SDS011;42657;51.650;17.780;2023-01-16T19:54:31;12.10;;;6.30;;
56788;SDS011;42657;51.650;17.780;2023-01-16T19:57:32;14.50;;;6.90;;
56788;SDS011;42657;51.650;17.780;2023-01-16T20:00:34;13.00;;;7.10;;
56788;SDS011;42657;51.650;17.780;2023-01-16T20:03:36;12.40;;;6.70;;
56788;SDS011;42657;51.650;17.780;2023-01-16T20:06:37;10.70;;;6.50;;
56788;SDS011;42657;51.650;17.780;2023-01-16T20:09:39;11.60;;;6.70;;
56788;SDS011;42657;51.650;17.780;2023-01-16T20:12:42;10.40;;;6.20;;
56788;SDS011;42657;51.650;17.780;2023-01-16T20:15:44;11.20;;;6.40;;
56788;SDS011;42657;51.650;17.780;2023-01-16T20:18:45;11.80;;;6.30;;
56788;SDS011;42657;51.650;17.780;2023-01-16T20:21:47;11.30;;;6.30;;